sensor_id;sensor_type;location;lat;lon;timestamp;P1;durP1;ratioP1;P2;durP2;ratioP2
76593;SDS011;65482;50.240;14.302;2023-05-14T00:00:25;19.48;;;12.50;;
76593;SDS011;65482;50.240;14.302;2023-05-14T00:03:10;17.90;;;11.77;;
76593;SDS011;65482;50.240;14.302;2023-05-14T00:05:36;19.13;;;12.50;;
76593;SDS011;65482;50.240;14.302;2023-05-14T00:08:01;20.25;;;12.43;;
76593;SDS011;65482;50.240;14.302;2023-05-14T00:10:27;19.42;;;12.55;;
76593;SDS011;65482;50.240;14.302;2023-05-14T00:12:53;20.02;;;11.95;;
76593;SDS011;65482;50.240;14.302;2023-05-14T00:15:18;18.70;;;12.77;;
76593;SDS011;65482;50.240;14.302;2023-05-14T00:17:44;20.17;;;12.63;;
76593;SDS011;65482;50.240;14.302;2023-05-14T00:20:10;19.77;;;12.98;;
76593;SDS011;65482;50.240;14.302;2023-05-14T00:22:36;24.10;;;13.95;;
76593;SDS011;65482;50.240;14.302;2023-05-14T00:25:05;21.95;;;14.02;;
76593;SDS011;65482;50.240;14.302;2023-05-14T00:27:32;24.65;;;13.50;;
76593;SDS011;65482;50.240;14.302;2023-05-14T00:29:58;20.23;;;11.85;;
76593;SDS011;65482;50.240;14.302;2023-05-14T00:32:23;17.73;;;12.30;;
76593;SDS011;65482;50.240;14.302;2023-05-14T00:34:49;17.35;;;11.25;;
76593;SDS011;65482;50.240;14.302;2023-05-14T00:37:15;16.65;;;10.98;;
76593;SDS011;65482;50.240;14.302;2023-05-14T00:39:41;17.33;;;11.13;;
76593;SDS011;65482;50.240;14.302;2023-05-14T00:42:06;16.55;;;10.82;;
76593;SDS011;65482;50.240;14.302;2023-05-14T00:44:32;14.88;;;10.48;;
76593;SDS011;65482;50.240;14.302;2023-05-14T00:46:58;14.55;;;10.45;;
76593;SDS011;65482;50.240;14.302;2023-05-14T00:49:24;15.38;;;10.77;;
76593;SDS011;65482;50.240;14.302;2023-05-14T00:51:51;17.23;;;10.07;;
76593;SDS011;65482;50.240;14.302;2023-05-14T00:54:17;15.23;;;9.98;;
76593;SDS011;65482;50.240;14.302;2023-05-14T00:56:44;15.60;;;10.20;;
76593;SDS011;65482;50.240;14.302;2023-05-14T00:59:11;11.25;;;9.10;;
76593;SDS011;65482;50.240;14.302;2023-05-14T01:01:38;13.15;;;9.43;;
76593;SDS011;65482;50.240;14.302;2023-05-14T01:04:04;12.55;;;9.75;;
76593;SDS011;65482;50.240;14.302;2023-05-14T01:06:50;15.60;;;9.77;;
76593;SDS011;65482;50.240;14.302;2023-05-14T01:09:19;16.42;;;10.13;;
76593;SDS011;65482;50.240;14.302;2023-05-14T01:12:02;13.02;;;9.65;;
76593;SDS011;65482;50.240;14.302;2023-05-14T01:14:44;13.82;;;10.23;;
76593;SDS011;65482;50.240;14.302;2023-05-14T01:17:11;13.27;;;10.05;;
76593;SDS011;65482;50.240;14.302;2023-05-14T01:19:41;13.02;;;9.30;;
76593;SDS011;65482;50.240;14.302;2023-05-14T01:22:07;12.50;;;9.27;;
76593;SDS011;65482;50.240;14.302;2023-05-14T01:24:34;15.18;;;9.60;;
76593;SDS011;65482;50.240;14.302;2023-05-14T01:27:00;13.32;;;10.32;;
76593;SDS011;65482;50.240;14.302;2023-05-14T01:29:33;15.02;;;10.57;;
76593;SDS011;65482;50.240;14.302;2023-05-14T01:32:01;15.25;;;11.15;;
76593;SDS011;65482;50.240;14.302;2023-05-14T01:34:30;14.82;;;11.18;;
76593;SDS011;65482;50.240;14.302;2023-05-14T01:36:56;14.23;;;11.32;;
76593;SDS011;65482;50.240;14.302;2023-05-14T01:39:23;14.10;;;11.05;;
76593;SDS011;65482;50.240;14.302;2023-05-14T01:41:49;17.27;;;11.35;;
76593;SDS011;65482;50.240;14.302;2023-05-14T01:44:17;16.48;;;11.70;;
76593;SDS011;65482;50.240;14.302;2023-05-14T01:46:43;15.88;;;11.43;;
76593;SDS011;65482;50.240;14.302;2023-05-14T01:49:09;17.83;;;11.95;;
76593;SDS011;65482;50.240;14.302;2023-05-14T01:51:34;17.05;;;12.10;;
76593;SDS011;65482;50.240;14.302;2023-05-14T01:54:00;17.52;;;11.98;;
76593;SDS011;65482;50.240;14.302;2023-05-14T01:56:25;18.80;;;12.60;;
76593;SDS011;65482;50.240;14.302;2023-05-14T01:58:51;17.52;;;11.77;;
76593;SDS011;65482;50.240;14.302;2023-05-14T02:01:17;16.08;;;11.65;;
76593;SDS011;65482;50.240;14.302;2023-05-14T02:03:43;17.17;;;11.43;;
76593;SDS011;65482;50.240;14.302;2023-05-14T02:06:08;16.23;;;10.68;;
76593;SDS011;65482;50.240;14.302;2023-05-14T02:08:34;14.40;;;10.48;;
76593;SDS011;65482;50.240;14.302;2023-05-14T02:10:59;16.63;;;11.15;;
76593;SDS011;65482;50.240;14.302;2023-05-14T02:13:25;13.52;;;10.57;;
76593;SDS011;65482;50.240;14.302;2023-05-14T02:15:51;17.08;;;10.30;;
76593;SDS011;65482;50.240;14.302;2023-05-14T02:18:16;15.65;;;10.07;;
76593;SDS011;65482;50.240;14.302;2023-05-14T02:20:42;13.35;;;10.10;;
76593;SDS011;65482;50.240;14.302;2023-05-14T02:23:08;19.10;;;10.35;;
76593;SDS011;65482;50.240;14.302;2023-05-14T02:25:33;13.13;;;9.60;;
76593;SDS011;65482;50.240;14.302;2023-05-14T02:27:59;13.90;;;10.18;;
76593;SDS011;65482;50.240;14.302;2023-05-14T02:30:25;16.30;;;11.35;;
76593;SDS011;65482;50.240;14.302;2023-05-14T02:32:50;16.08;;;10.38;;
76593;SDS011;65482;50.240;14.302;2023-05-14T02:35:16;15.73;;;10.65;;
76593;SDS011;65482;50.240;14.302;2023-05-14T02:37:42;17.38;;;10.60;;
76593;SDS011;65482;50.240;14.302;2023-05-14T02:40:07;13.98;;;10.20;;
76593;SDS011;65482;50.240;14.302;2023-05-14T02:42:33;16.98;;;11.10;;
76593;SDS011;65482;50.240;14.302;2023-05-14T02:44:59;16.40;;;10.82;;
76593;SDS011;65482;50.240;14.302;2023-05-14T02:47:25;14.43;;;9.95;;
76593;SDS011;65482;50.240;14.302;2023-05-14T02:49:50;14.55;;;10.45;;
76593;SDS011;65482;50.240;14.302;2023-05-14T02:52:16;16.23;;;10.52;;
76593;SDS011;65482;50.240;14.302;2023-05-14T02:54:42;20.00;;;10.15;;
76593;SDS011;65482;50.240;14.302;2023-05-14T02:57:07;13.95;;;10.10;;
76593;SDS011;65482;50.240;14.302;2023-05-14T02:59:33;14.80;;;10.88;;
76593;SDS011;65482;50.240;14.302;2023-05-14T03:01:59;14.32;;;10.55;;
76593;SDS011;65482;50.240;14.302;2023-05-14T03:04:24;17.15;;;11.23;;
76593;SDS011;65482;50.240;14.302;2023-05-14T03:06:50;14.90;;;11.07;;
76593;SDS011;65482;50.240;14.302;2023-05-14T03:09:15;16.55;;;10.65;;
76593;SDS011;65482;50.240;14.302;2023-05-14T03:11:41;15.73;;;11.18;;
76593;SDS011;65482;50.240;14.302;2023-05-14T03:14:07;15.90;;;11.38;;
76593;SDS011;65482;50.240;14.302;2023-05-14T03:16:32;16.20;;;11.27;;
76593;SDS011;65482;50.240;14.302;2023-05-14T03:18:58;18.55;;;11.48;;
76593;SDS011;65482;50.240;14.302;2023-05-14T03:21:24;16.90;;;11.35;;
76593;SDS011;65482;50.240;14.302;2023-05-14T03:23:50;15.30;;;11.70;;
76593;SDS011;65482;50.240;14.302;2023-05-14T03:26:17;17.08;;;11.57;;
76593;SDS011;65482;50.240;14.302;2023-05-14T03:28:43;17.00;;;11.65;;
76593;SDS011;65482;50.240;14.302;2023-05-14T03:31:09;16.33;;;11.15;;
76593;SDS011;65482;50.240;14.302;2023-05-14T03:33:34;15.40;;;11.77;;
76593;SDS011;65482;50.240;14.302;2023-05-14T03:36:00;19.00;;;12.30;;
76593;SDS011;65482;50.240;14.302;2023-05-14T03:38:26;14.90;;;10.82;;
76593;SDS011;65482;50.240;14.302;2023-05-14T03:40:51;16.08;;;11.63;;
76593;SDS011;65482;50.240;14.302;2023-05-14T03:43:17;15.18;;;11.07;;
76593;SDS011;65482;50.240;14.302;2023-05-14T03:45:43;15.20;;;11.23;;
76593;SDS011;65482;50.240;14.302;2023-05-14T03:48:08;17.52;;;12.13;;
76593;SDS011;65482;50.240;14.302;2023-05-14T03:50:34;15.20;;;11.52;;
76593;SDS011;65482;50.240;14.302;2023-05-14T03:52:59;16.38;;;11.50;;
76593;SDS011;65482;50.240;14.302;2023-05-14T03:55:25;16.13;;;11.60;;
76593;SDS011;65482;50.240;14.302;2023-05-14T03:57:51;20.63;;;11.88;;
76593;SDS011;65482;50.240;14.302;2023-05-14T04:00:17;19.73;;;11.57;;
76593;SDS011;65482;50.240;14.302;2023-05-14T04:02:43;15.93;;;11.80;;
76593;SDS011;65482;50.240;14.302;2023-05-14T04:05:08;15.35;;;11.52;;
76593;SDS011;65482;50.240;14.302;2023-05-14T04:07:34;17.20;;;11.68;;
76593;SDS011;65482;50.240;14.302;2023-05-14T04:10:01;15.60;;;11.52;;
76593;SDS011;65482;50.240;14.302;2023-05-14T04:12:27;16.13;;;12.20;;
76593;SDS011;65482;50.240;14.302;2023-05-14T04:14:53;17.70;;;11.88;;
76593;SDS011;65482;50.240;14.302;2023-05-14T04:17:19;16.92;;;11.35;;
76593;SDS011;65482;50.240;14.302;2023-05-14T04:19:45;17.17;;;11.90;;
76593;SDS011;65482;50.240;14.302;2023-05-14T04:22:10;15.35;;;11.88;;
76593;SDS011;65482;50.240;14.302;2023-05-14T04:24:36;16.95;;;12.25;;
76593;SDS011;65482;50.240;14.302;2023-05-14T04:27:01;16.38;;;11.48;;
76593;SDS011;65482;50.240;14.302;2023-05-14T04:29:28;18.30;;;12.60;;
76593;SDS011;65482;50.240;14.302;2023-05-14T04:31:54;15.98;;;12.00;;
76593;SDS011;65482;50.240;14.302;2023-05-14T04:34:20;16.70;;;12.05;;
76593;SDS011;65482;50.240;14.302;2023-05-14T04:36:45;15.77;;;11.15;;
76593;SDS011;65482;50.240;14.302;2023-05-14T04:39:11;15.65;;;11.70;;
76593;SDS011;65482;50.240;14.302;2023-05-14T04:41:37;16.48;;;11.95;;
76593;SDS011;65482;50.240;14.302;2023-05-14T04:44:03;17.38;;;11.65;;
76593;SDS011;65482;50.240;14.302;2023-05-14T04:46:29;20.25;;;12.40;;
76593;SDS011;65482;50.240;14.302;2023-05-14T04:48:55;15.65;;;11.98;;
76593;SDS011;65482;50.240;14.302;2023-05-14T04:51:23;15.20;;;11.32;;
76593;SDS011;65482;50.240;14.302;2023-05-14T04:53:49;18.95;;;11.70;;
76593;SDS011;65482;50.240;14.302;2023-05-14T04:56:14;14.30;;;11.45;;
76593;SDS011;65482;50.240;14.302;2023-05-14T04:58:40;18.55;;;10.63;;
76593;SDS011;65482;50.240;14.302;2023-05-14T05:01:06;14.85;;;10.70;;
76593;SDS011;65482;50.240;14.302;2023-05-14T05:03:31;13.50;;;10.70;;
76593;SDS011;65482;50.240;14.302;2023-05-14T05:05:57;12.50;;;9.90;;
76593;SDS011;65482;50.240;14.302;2023-05-14T05:08:23;14.43;;;10.40;;
76593;SDS011;65482;50.240;14.302;2023-05-14T05:10:48;13.98;;;10.43;;
76593;SDS011;65482;50.240;14.302;2023-05-14T05:13:14;13.93;;;10.18;;
76593;SDS011;65482;50.240;14.302;2023-05-14T05:15:41;13.07;;;10.43;;
76593;SDS011;65482;50.240;14.302;2023-05-14T05:18:07;12.00;;;9.93;;
76593;SDS011;65482;50.240;14.302;2023-05-14T05:20:33;15.90;;;10.25;;
76593;SDS011;65482;50.240;14.302;2023-05-14T05:22:59;14.40;;;10.77;;
76593;SDS011;65482;50.240;14.302;2023-05-14T05:25:24;15.38;;;11.50;;
76593;SDS011;65482;50.240;14.302;2023-05-14T05:27:51;15.20;;;11.68;;
76593;SDS011;65482;50.240;14.302;2023-05-14T05:30:17;14.60;;;11.43;;
76593;SDS011;65482;50.240;14.302;2023-05-14T05:32:42;16.73;;;11.50;;
76593;SDS011;65482;50.240;14.302;2023-05-14T05:35:08;15.00;;;11.10;;
76593;SDS011;65482;50.240;14.302;2023-05-14T05:37:34;15.45;;;11.88;;
76593;SDS011;65482;50.240;14.302;2023-05-14T05:39:59;15.90;;;11.65;;
76593;SDS011;65482;50.240;14.302;2023-05-14T05:42:25;17.20;;;12.32;;
76593;SDS011;65482;50.240;14.302;2023-05-14T05:44:51;14.52;;;11.10;;
76593;SDS011;65482;50.240;14.302;2023-05-14T05:47:16;15.02;;;11.98;;
76593;SDS011;65482;50.240;14.302;2023-05-14T05:49:42;15.25;;;11.80;;
76593;SDS011;65482;50.240;14.302;2023-05-14T05:52:08;14.48;;;11.07;;
76593;SDS011;65482;50.240;14.302;2023-05-14T05:54:34;14.77;;;11.65;;
76593;SDS011;65482;50.240;14.302;2023-05-14T05:57:00;15.65;;;11.70;;
76593;SDS011;65482;50.240;14.302;2023-05-14T05:59:25;15.40;;;11.60;;
76593;SDS011;65482;50.240;14.302;2023-05-14T06:01:51;14.27;;;11.32;;
76593;SDS011;65482;50.240;14.302;2023-05-14T06:04:17;13.25;;;9.93;;
76593;SDS011;65482;50.240;14.302;2023-05-14T06:06:42;13.10;;;10.25;;
76593;SDS011;65482;50.240;14.302;2023-05-14T06:09:08;12.50;;;10.35;;
76593;SDS011;65482;50.240;14.302;2023-05-14T06:11:34;15.25;;;11.10;;
76593;SDS011;65482;50.240;14.302;2023-05-14T06:14:00;16.25;;;10.52;;
76593;SDS011;65482;50.240;14.302;2023-05-14T06:16:26;13.68;;;10.13;;
76593;SDS011;65482;50.240;14.302;2023-05-14T06:18:51;13.23;;;10.15;;
76593;SDS011;65482;50.240;14.302;2023-05-14T06:21:18;15.02;;;10.75;;
76593;SDS011;65482;50.240;14.302;2023-05-14T06:23:44;13.52;;;10.57;;
76593;SDS011;65482;50.240;14.302;2023-05-14T06:26:10;13.90;;;10.05;;
76593;SDS011;65482;50.240;14.302;2023-05-14T06:28:35;13.88;;;10.18;;
76593;SDS011;65482;50.240;14.302;2023-05-14T06:31:01;13.38;;;9.63;;
76593;SDS011;65482;50.240;14.302;2023-05-14T06:33:27;13.55;;;9.52;;
76593;SDS011;65482;50.240;14.302;2023-05-14T06:35:59;13.32;;;9.85;;
76593;SDS011;65482;50.240;14.302;2023-05-14T06:38:28;13.07;;;9.80;;
76593;SDS011;65482;50.240;14.302;2023-05-14T06:40:54;11.25;;;9.55;;
76593;SDS011;65482;50.240;14.302;2023-05-14T06:43:19;13.32;;;9.85;;
76593;SDS011;65482;50.240;14.302;2023-05-14T06:45:49;12.82;;;10.23;;
76593;SDS011;65482;50.240;14.302;2023-05-14T06:48:17;14.05;;;10.10;;
76593;SDS011;65482;50.240;14.302;2023-05-14T06:50:43;15.02;;;9.90;;
76593;SDS011;65482;50.240;14.302;2023-05-14T06:53:10;11.15;;;9.07;;
76593;SDS011;65482;50.240;14.302;2023-05-14T06:55:35;11.98;;;9.80;;
76593;SDS011;65482;50.240;14.302;2023-05-14T06:58:01;12.55;;;9.63;;
76593;SDS011;65482;50.240;14.302;2023-05-14T07:00:27;11.20;;;9.35;;
76593;SDS011;65482;50.240;14.302;2023-05-14T07:02:52;15.63;;;9.45;;
76593;SDS011;65482;50.240;14.302;2023-05-14T07:05:18;11.77;;;9.23;;
76593;SDS011;65482;50.240;14.302;2023-05-14T07:07:44;12.90;;;9.10;;
76593;SDS011;65482;50.240;14.302;2023-05-14T07:10:10;10.68;;;8.57;;
76593;SDS011;65482;50.240;14.302;2023-05-14T07:12:35;9.35;;;7.90;;
76593;SDS011;65482;50.240;14.302;2023-05-14T07:15:01;9.20;;;7.30;;
76593;SDS011;65482;50.240;14.302;2023-05-14T07:17:27;9.68;;;7.65;;
76593;SDS011;65482;50.240;14.302;2023-05-14T07:19:53;10.43;;;7.25;;
76593;SDS011;65482;50.240;14.302;2023-05-14T07:22:20;8.95;;;7.00;;
76593;SDS011;65482;50.240;14.302;2023-05-14T07:24:46;8.77;;;7.07;;
76593;SDS011;65482;50.240;14.302;2023-05-14T07:27:11;12.02;;;7.20;;
76593;SDS011;65482;50.240;14.302;2023-05-14T07:29:38;13.43;;;7.53;;
76593;SDS011;65482;50.240;14.302;2023-05-14T07:32:03;7.78;;;6.57;;
76593;SDS011;65482;50.240;14.302;2023-05-14T07:34:29;8.68;;;7.38;;
76593;SDS011;65482;50.240;14.302;2023-05-14T07:36:55;8.55;;;7.20;;
76593;SDS011;65482;50.240;14.302;2023-05-14T07:39:23;9.23;;;6.90;;
76593;SDS011;65482;50.240;14.302;2023-05-14T07:41:49;9.45;;;7.38;;
76593;SDS011;65482;50.240;14.302;2023-05-14T07:44:15;8.85;;;6.72;;
76593;SDS011;65482;50.240;14.302;2023-05-14T07:46:41;8.85;;;6.78;;
76593;SDS011;65482;50.240;14.302;2023-05-14T07:49:07;11.25;;;7.25;;
76593;SDS011;65482;50.240;14.302;2023-05-14T07:51:32;8.05;;;6.40;;
76593;SDS011;65482;50.240;14.302;2023-05-14T07:53:58;9.65;;;7.75;;
76593;SDS011;65482;50.240;14.302;2023-05-14T07:56:26;9.15;;;7.68;;
76593;SDS011;65482;50.240;14.302;2023-05-14T07:58:51;9.25;;;7.55;;
76593;SDS011;65482;50.240;14.302;2023-05-14T08:01:17;9.27;;;7.28;;
76593;SDS011;65482;50.240;14.302;2023-05-14T08:03:43;8.48;;;7.00;;
76593;SDS011;65482;50.240;14.302;2023-05-14T08:06:09;8.52;;;7.03;;
76593;SDS011;65482;50.240;14.302;2023-05-14T08:08:36;7.82;;;7.03;;
76593;SDS011;65482;50.240;14.302;2023-05-14T08:11:01;8.95;;;7.05;;
76593;SDS011;65482;50.240;14.302;2023-05-14T08:13:28;7.78;;;6.80;;
76593;SDS011;65482;50.240;14.302;2023-05-14T08:15:54;7.97;;;7.07;;
76593;SDS011;65482;50.240;14.302;2023-05-14T08:18:19;7.90;;;6.80;;
76593;SDS011;65482;50.240;14.302;2023-05-14T08:20:45;8.10;;;6.53;;
76593;SDS011;65482;50.240;14.302;2023-05-14T08:23:11;8.05;;;6.93;;
76593;SDS011;65482;50.240;14.302;2023-05-14T08:25:37;9.35;;;6.30;;
76593;SDS011;65482;50.240;14.302;2023-05-14T08:28:03;9.45;;;7.03;;
76593;SDS011;65482;50.240;14.302;2023-05-14T08:30:31;11.43;;;6.70;;
76593;SDS011;65482;50.240;14.302;2023-05-14T08:32:58;8.13;;;6.65;;
76593;SDS011;65482;50.240;14.302;2023-05-14T08:35:24;6.82;;;5.38;;
76593;SDS011;65482;50.240;14.302;2023-05-14T08:37:50;6.28;;;5.53;;
76593;SDS011;65482;50.240;14.302;2023-05-14T08:40:16;5.53;;;4.65;;
76593;SDS011;65482;50.240;14.302;2023-05-14T08:42:42;7.65;;;4.63;;
76593;SDS011;65482;50.240;14.302;2023-05-14T08:47:46;5.72;;;5.10;;
76593;SDS011;65482;50.240;14.302;2023-05-14T08:50:15;7.35;;;5.15;;
76593;SDS011;65482;50.240;14.302;2023-05-14T08:52:43;5.97;;;5.38;;
76593;SDS011;65482;50.240;14.302;2023-05-14T08:55:09;7.47;;;5.63;;
76593;SDS011;65482;50.240;14.302;2023-05-14T08:57:36;6.07;;;5.47;;
76593;SDS011;65482;50.240;14.302;2023-05-14T09:00:02;5.35;;;4.80;;
76593;SDS011;65482;50.240;14.302;2023-05-14T09:02:40;7.30;;;4.80;;
76593;SDS011;65482;50.240;14.302;2023-05-14T09:05:06;6.95;;;5.03;;
76593;SDS011;65482;50.240;14.302;2023-05-14T09:07:33;5.57;;;4.90;;
76593;SDS011;65482;50.240;14.302;2023-05-14T09:09:59;6.07;;;4.80;;
76593;SDS011;65482;50.240;14.302;2023-05-14T09:12:26;5.68;;;5.18;;
76593;SDS011;65482;50.240;14.302;2023-05-14T09:14:52;8.48;;;5.30;;
76593;SDS011;65482;50.240;14.302;2023-05-14T09:17:18;7.28;;;4.93;;
76593;SDS011;65482;50.240;14.302;2023-05-14T09:19:44;5.65;;;4.47;;
76593;SDS011;65482;50.240;14.302;2023-05-14T09:22:14;5.18;;;4.63;;
76593;SDS011;65482;50.240;14.302;2023-05-14T09:24:41;6.75;;;5.15;;
76593;SDS011;65482;50.240;14.302;2023-05-14T09:27:08;6.65;;;5.60;;
76593;SDS011;65482;50.240;14.302;2023-05-14T09:29:36;7.40;;;5.25;;
76593;SDS011;65482;50.240;14.302;2023-05-14T09:32:02;6.28;;;5.38;;
76593;SDS011;65482;50.240;14.302;2023-05-14T09:34:33;5.72;;;5.00;;
76593;SDS011;65482;50.240;14.302;2023-05-14T09:37:06;5.90;;;4.70;;
76593;SDS011;65482;50.240;14.302;2023-05-14T09:39:33;5.90;;;5.03;;
76593;SDS011;65482;50.240;14.302;2023-05-14T09:42:01;5.47;;;4.50;;
76593;SDS011;65482;50.240;14.302;2023-05-14T09:44:27;8.15;;;4.65;;
76593;SDS011;65482;50.240;14.302;2023-05-14T09:46:53;6.80;;;4.93;;
76593;SDS011;65482;50.240;14.302;2023-05-14T09:49:20;6.82;;;4.30;;
76593;SDS011;65482;50.240;14.302;2023-05-14T09:51:47;5.55;;;4.95;;
76593;SDS011;65482;50.240;14.302;2023-05-14T09:54:14;5.30;;;4.53;;
76593;SDS011;65482;50.240;14.302;2023-05-14T09:56:40;7.97;;;4.63;;
76593;SDS011;65482;50.240;14.302;2023-05-14T09:59:06;7.13;;;4.53;;
76593;SDS011;65482;50.240;14.302;2023-05-14T10:01:31;5.53;;;4.18;;
76593;SDS011;65482;50.240;14.302;2023-05-14T10:03:57;6.47;;;5.05;;
76593;SDS011;65482;50.240;14.302;2023-05-14T10:06:27;5.18;;;4.22;;
76593;SDS011;65482;50.240;14.302;2023-05-14T10:09:02;6.03;;;4.80;;
76593;SDS011;65482;50.240;14.302;2023-05-14T10:11:32;6.18;;;4.70;;
76593;SDS011;65482;50.240;14.302;2023-05-14T10:14:12;6.20;;;4.65;;
76593;SDS011;65482;50.240;14.302;2023-05-14T10:16:45;5.22;;;4.50;;
76593;SDS011;65482;50.240;14.302;2023-05-14T10:19:14;5.05;;;4.30;;
76593;SDS011;65482;50.240;14.302;2023-05-14T10:21:40;6.30;;;4.70;;
76593;SDS011;65482;50.240;14.302;2023-05-14T10:24:10;4.75;;;4.10;;
76593;SDS011;65482;50.240;14.302;2023-05-14T10:26:37;5.45;;;4.20;;
76593;SDS011;65482;50.240;14.302;2023-05-14T10:29:05;4.75;;;4.25;;
76593;SDS011;65482;50.240;14.302;2023-05-14T10:31:47;6.65;;;4.10;;
76593;SDS011;65482;50.240;14.302;2023-05-14T10:34:30;4.72;;;3.70;;
76593;SDS011;65482;50.240;14.302;2023-05-14T10:37:02;5.38;;;4.22;;
76593;SDS011;65482;50.240;14.302;2023-05-14T10:39:39;6.13;;;3.55;;
76593;SDS011;65482;50.240;14.302;2023-05-14T10:42:05;4.90;;;3.90;;
76593;SDS011;65482;50.240;14.302;2023-05-14T10:44:31;4.70;;;4.20;;
76593;SDS011;65482;50.240;14.302;2023-05-14T10:47:00;4.18;;;3.78;;
76593;SDS011;65482;50.240;14.302;2023-05-14T10:49:26;5.18;;;4.00;;
76593;SDS011;65482;50.240;14.302;2023-05-14T10:51:52;4.70;;;3.50;;
76593;SDS011;65482;50.240;14.302;2023-05-14T10:54:18;4.78;;;3.78;;
76593;SDS011;65482;50.240;14.302;2023-05-14T10:56:46;4.20;;;2.83;;
76593;SDS011;65482;50.240;14.302;2023-05-14T10:59:12;4.30;;;3.10;;
76593;SDS011;65482;50.240;14.302;2023-05-14T11:01:40;5.05;;;3.13;;
76593;SDS011;65482;50.240;14.302;2023-05-14T11:04:06;3.55;;;3.25;;
76593;SDS011;65482;50.240;14.302;2023-05-14T11:06:33;4.25;;;3.10;;
76593;SDS011;65482;50.240;14.302;2023-05-14T11:09:02;3.90;;;3.20;;
76593;SDS011;65482;50.240;14.302;2023-05-14T11:11:29;4.40;;;3.30;;
76593;SDS011;65482;50.240;14.302;2023-05-14T11:13:55;4.85;;;3.25;;
76593;SDS011;65482;50.240;14.302;2023-05-14T11:16:21;3.67;;;3.10;;
76593;SDS011;65482;50.240;14.302;2023-05-14T11:18:52;4.20;;;2.75;;
76593;SDS011;65482;50.240;14.302;2023-05-14T11:21:24;4.45;;;3.00;;
76593;SDS011;65482;50.240;14.302;2023-05-14T11:23:50;4.95;;;3.20;;
76593;SDS011;65482;50.240;14.302;2023-05-14T11:26:15;3.75;;;2.90;;
76593;SDS011;65482;50.240;14.302;2023-05-14T11:28:41;3.72;;;3.17;;
76593;SDS011;65482;50.240;14.302;2023-05-14T11:31:08;5.03;;;2.97;;
76593;SDS011;65482;50.240;14.302;2023-05-14T11:33:34;3.65;;;3.15;;
76593;SDS011;65482;50.240;14.302;2023-05-14T11:36:00;4.07;;;3.20;;
76593;SDS011;65482;50.240;14.302;2023-05-14T11:38:26;4.07;;;3.38;;
76593;SDS011;65482;50.240;14.302;2023-05-14T11:40:53;3.95;;;2.70;;
76593;SDS011;65482;50.240;14.302;2023-05-14T11:43:24;4.28;;;2.83;;
76593;SDS011;65482;50.240;14.302;2023-05-14T11:45:53;4.78;;;3.00;;
76593;SDS011;65482;50.240;14.302;2023-05-14T11:48:20;8.32;;;2.90;;
76593;SDS011;65482;50.240;14.302;2023-05-14T11:50:47;3.38;;;2.80;;
76593;SDS011;65482;50.240;14.302;2023-05-14T11:53:24;3.80;;;3.05;;
76593;SDS011;65482;50.240;14.302;2023-05-14T11:55:51;3.50;;;2.75;;
76593;SDS011;65482;50.240;14.302;2023-05-14T11:58:19;4.95;;;2.70;;
76593;SDS011;65482;50.240;14.302;2023-05-14T12:00:48;4.20;;;2.63;;
76593;SDS011;65482;50.240;14.302;2023-05-14T12:03:15;4.38;;;2.47;;
76593;SDS011;65482;50.240;14.302;2023-05-14T12:05:53;3.75;;;2.50;;
76593;SDS011;65482;50.240;14.302;2023-05-14T12:08:20;3.17;;;2.42;;
76593;SDS011;65482;50.240;14.302;2023-05-14T12:13:21;2.95;;;2.65;;
76593;SDS011;65482;50.240;14.302;2023-05-14T12:15:53;3.90;;;2.67;;
76593;SDS011;65482;50.240;14.302;2023-05-14T12:18:21;3.85;;;2.50;;
76593;SDS011;65482;50.240;14.302;2023-05-14T12:20:48;4.78;;;2.58;;
76593;SDS011;65482;50.240;14.302;2023-05-14T12:23:15;2.70;;;2.47;;
76593;SDS011;65482;50.240;14.302;2023-05-14T12:25:50;2.55;;;2.35;;
76593;SDS011;65482;50.240;14.302;2023-05-14T12:28:16;4.35;;;2.40;;
76593;SDS011;65482;50.240;14.302;2023-05-14T12:30:43;2.65;;;1.98;;
76593;SDS011;65482;50.240;14.302;2023-05-14T12:33:10;3.22;;;2.20;;
76593;SDS011;65482;50.240;14.302;2023-05-14T12:35:36;2.97;;;2.28;;
76593;SDS011;65482;50.240;14.302;2023-05-14T12:38:02;2.90;;;2.33;;
76593;SDS011;65482;50.240;14.302;2023-05-14T12:40:28;3.58;;;2.35;;
76593;SDS011;65482;50.240;14.302;2023-05-14T12:42:54;3.90;;;2.38;;
76593;SDS011;65482;50.240;14.302;2023-05-14T12:45:20;4.05;;;2.10;;
76593;SDS011;65482;50.240;14.302;2023-05-14T12:47:46;3.33;;;2.30;;
76593;SDS011;65482;50.240;14.302;2023-05-14T12:50:14;2.65;;;2.10;;
76593;SDS011;65482;50.240;14.302;2023-05-14T12:52:40;2.38;;;2.17;;
76593;SDS011;65482;50.240;14.302;2023-05-14T12:55:06;2.67;;;2.20;;
76593;SDS011;65482;50.240;14.302;2023-05-14T12:57:33;2.00;;;1.80;;
76593;SDS011;65482;50.240;14.302;2023-05-14T12:59:59;4.00;;;1.92;;
76593;SDS011;65482;50.240;14.302;2023-05-14T13:02:25;2.35;;;2.00;;
76593;SDS011;65482;50.240;14.302;2023-05-14T13:04:51;3.67;;;1.90;;
76593;SDS011;65482;50.240;14.302;2023-05-14T13:07:17;3.20;;;2.00;;
76593;SDS011;65482;50.240;14.302;2023-05-14T13:09:42;2.30;;;1.90;;
76593;SDS011;65482;50.240;14.302;2023-05-14T13:12:08;2.30;;;2.10;;
76593;SDS011;65482;50.240;14.302;2023-05-14T13:14:34;2.80;;;1.63;;
76593;SDS011;65482;50.240;14.302;2023-05-14T13:17:01;6.28;;;2.45;;
76593;SDS011;65482;50.240;14.302;2023-05-14T13:19:26;3.47;;;2.00;;
76593;SDS011;65482;50.240;14.302;2023-05-14T13:21:52;2.20;;;2.00;;
76593;SDS011;65482;50.240;14.302;2023-05-14T13:24:18;2.30;;;2.03;;
76593;SDS011;65482;50.240;14.302;2023-05-14T13:26:43;3.33;;;2.10;;
76593;SDS011;65482;50.240;14.302;2023-05-14T13:29:09;5.13;;;1.90;;
76593;SDS011;65482;50.240;14.302;2023-05-14T13:31:35;6.28;;;1.80;;
76593;SDS011;65482;50.240;14.302;2023-05-14T13:34:01;2.15;;;1.90;;
76593;SDS011;65482;50.240;14.302;2023-05-14T13:36:27;8.48;;;2.00;;
76593;SDS011;65482;50.240;14.302;2023-05-14T13:38:52;2.67;;;2.00;;
76593;SDS011;65482;50.240;14.302;2023-05-14T13:41:18;2.45;;;1.65;;
76593;SDS011;65482;50.240;14.302;2023-05-14T13:43:44;2.35;;;2.00;;
76593;SDS011;65482;50.240;14.302;2023-05-14T13:46:10;2.65;;;1.65;;
76593;SDS011;65482;50.240;14.302;2023-05-14T13:48:35;2.20;;;1.95;;
76593;SDS011;65482;50.240;14.302;2023-05-14T13:51:01;3.20;;;2.22;;
76593;SDS011;65482;50.240;14.302;2023-05-14T13:53:27;2.50;;;2.00;;
76593;SDS011;65482;50.240;14.302;2023-05-14T13:55:53;3.17;;;2.00;;
76593;SDS011;65482;50.240;14.302;2023-05-14T13:58:23;2.60;;;2.10;;
76593;SDS011;65482;50.240;14.302;2023-05-14T14:00:50;4.82;;;2.10;;
76593;SDS011;65482;50.240;14.302;2023-05-14T14:03:18;3.13;;;2.20;;
76593;SDS011;65482;50.240;14.302;2023-05-14T14:05:45;2.30;;;2.10;;
76593;SDS011;65482;50.240;14.302;2023-05-14T14:08:11;2.03;;;1.85;;
76593;SDS011;65482;50.240;14.302;2023-05-14T14:10:37;2.33;;;1.85;;
76593;SDS011;65482;50.240;14.302;2023-05-14T14:13:05;2.83;;;2.40;;
76593;SDS011;65482;50.240;14.302;2023-05-14T14:15:31;2.67;;;1.85;;
76593;SDS011;65482;50.240;14.302;2023-05-14T14:17:56;3.85;;;2.17;;
76593;SDS011;65482;50.240;14.302;2023-05-14T14:20:22;2.45;;;2.20;;
76593;SDS011;65482;50.240;14.302;2023-05-14T14:22:48;2.20;;;2.00;;
76593;SDS011;65482;50.240;14.302;2023-05-14T14:25:13;2.60;;;2.10;;